# Tabular Observed and Forecast Hydrograph Information
#
# Location: Butte Creek - Durham (DRMC1)
#
# File Generation Time: 08/31/2026 at 07:42 AM PDT
# Data Interval: 1 Hour
#
# Most Recent Date & Time of Maximum Observed: 08/27/2026 at 11:00 AM PDT
# Maximum Observed Stage: 180.14 Feet
# Maximum Observed Flow: 75 cfs
#
# Earliest Date & Time of Maximum Forecast: 09/03/2026 at 11:00 PM PDT
# Maximum Forecast Stage: 180.14 Feet
# Maximum Forecast Flow: 75 cfs
#
# OBSERVED
#
# Date & Time (Local) Stage (Feet) Flow (cfs) Trend Observed Status
# ---------------------------------------------------------------------------------
08/26/2026 07 AM PDT 180.13 74 Normal
08/26/2026 08 AM PDT 180.13 74 0 Normal
08/26/2026 09 AM PDT 180.13 74 0 Normal
08/26/2026 10 AM PDT 180.12 73 - Normal
08/26/2026 11 AM PDT 180.10 70 - Normal
08/26/2026 12 PM PDT 180.10 70 0 Normal
08/26/2026 01 PM PDT 180.10 70 0 Normal
08/26/2026 02 PM PDT 180.07 66 - Normal
08/26/2026 03 PM PDT 180.09 69 + Normal
08/26/2026 04 PM PDT 180.11 71 + Normal
08/26/2026 05 PM PDT 180.11 71 0 Normal
08/26/2026 06 PM PDT 180.09 69 - Normal
08/26/2026 07 PM PDT 180.09 69 0 Normal
08/26/2026 08 PM PDT 180.10 70 + Normal
08/26/2026 09 PM PDT 180.10 70 0 Normal
08/26/2026 10 PM PDT 180.10 70 0 Normal
08/26/2026 11 PM PDT 180.10 70 0 Normal
08/27/2026 12 AM PDT 180.09 69 - Normal
08/27/2026 01 AM PDT 180.10 70 + Normal
08/27/2026 02 AM PDT 180.11 71 + Normal
08/27/2026 03 AM PDT 180.11 71 0 Normal
08/27/2026 04 AM PDT 180.11 71 0 Normal
08/27/2026 05 AM PDT 180.12 73 + Normal
08/27/2026 06 AM PDT 180.13 74 + Normal
08/27/2026 07 AM PDT 180.11 71 - Normal
08/27/2026 08 AM PDT 180.12 73 + Normal
08/27/2026 09 AM PDT 180.13 74 + Normal
08/27/2026 10 AM PDT 180.14 75 + Normal
08/27/2026 11 AM PDT 180.14 75 0 Normal
08/27/2026 12 PM PDT 180.13 74 - Normal
08/27/2026 01 PM PDT 180.13 74 0 Normal
08/27/2026 02 PM PDT 180.13 74 0 Normal
08/27/2026 03 PM PDT 180.12 73 - Normal
08/27/2026 04 PM PDT 180.11 71 - Normal
08/27/2026 05 PM PDT 180.10 70 - Normal
08/27/2026 06 PM PDT 180.05 63 - Normal
08/27/2026 07 PM PDT 180.03 61 - Normal
08/27/2026 08 PM PDT 180.10 70 + Normal
08/27/2026 09 PM PDT 180.12 73 + Normal
08/27/2026 10 PM PDT 180.11 71 - Normal
08/27/2026 11 PM PDT 180.10 70 - Normal
08/28/2026 12 AM PDT 180.11 71 + Normal
08/28/2026 01 AM PDT 180.12 73 + Normal
08/28/2026 02 AM PDT 180.12 73 0 Normal
08/28/2026 03 AM PDT 180.10 70 - Normal
08/28/2026 04 AM PDT 180.11 71 + Normal
08/28/2026 05 AM PDT 180.11 71 0 Normal
08/28/2026 06 AM PDT 180.12 73 + Normal
08/28/2026 07 AM PDT 180.12 73 0 Normal
08/28/2026 08 AM PDT 180.12 73 0 Normal
08/28/2026 09 AM PDT 180.11 71 - Normal
08/28/2026 10 AM PDT 180.11 71 0 Normal
08/28/2026 11 AM PDT 180.09 69 - Normal
08/28/2026 12 PM PDT 180.06 64 - Normal
08/28/2026 01 PM PDT 180.06 64 0 Normal
08/28/2026 02 PM PDT 180.06 64 0 Normal
08/28/2026 03 PM PDT 180.06 64 0 Normal
08/28/2026 04 PM PDT 180.05 63 - Normal
08/28/2026 05 PM PDT 180.05 63 0 Normal
08/28/2026 06 PM PDT 180.06 64 + Normal
08/28/2026 07 PM PDT 180.04 62 - Normal
08/28/2026 08 PM PDT 180.04 62 0 Normal
08/28/2026 09 PM PDT 180.05 63 + Normal
08/28/2026 10 PM PDT 180.05 63 0 Normal
08/28/2026 11 PM PDT 180.06 64 + Normal
08/29/2026 12 AM PDT 180.06 64 0 Normal
08/29/2026 01 AM PDT 180.06 64 0 Normal
08/29/2026 02 AM PDT 180.07 66 + Normal
08/29/2026 03 AM PDT 180.08 67 + Normal
08/29/2026 04 AM PDT 180.07 66 - Normal
08/29/2026 05 AM PDT 180.08 67 + Normal
08/29/2026 06 AM PDT 180.05 63 - Normal
08/29/2026 07 AM PDT 180.06 64 + Normal
08/29/2026 08 AM PDT 180.08 67 + Normal
08/29/2026 09 AM PDT 180.09 69 + Normal
08/29/2026 10 AM PDT 180.11 71 + Normal
08/29/2026 11 AM PDT 180.10 70 - Normal
08/29/2026 12 PM PDT 180.09 69 - Normal
08/29/2026 01 PM PDT 180.07 66 - Normal
08/29/2026 02 PM PDT 180.07 66 0 Normal
08/29/2026 03 PM PDT 180.05 63 - Normal
08/29/2026 04 PM PDT 180.05 63 0 Normal
08/29/2026 05 PM PDT 180.05 63 0 Normal
08/29/2026 06 PM PDT 180.05 63 0 Normal
08/29/2026 07 PM PDT 180.05 63 0 Normal
08/29/2026 08 PM PDT 180.06 64 + Normal
08/29/2026 09 PM PDT 180.04 62 - Normal
08/29/2026 10 PM PDT 180.05 63 + Normal
08/29/2026 11 PM PDT 180.07 66 + Normal
08/30/2026 12 AM PDT 180.08 67 + Normal
08/30/2026 01 AM PDT 180.07 66 - Normal
08/30/2026 02 AM PDT 180.06 64 - Normal
08/30/2026 03 AM PDT 180.06 64 0 Normal
08/30/2026 04 AM PDT 180.08 67 + Normal
08/30/2026 05 AM PDT 180.08 67 0 Normal
08/30/2026 06 AM PDT 180.08 67 0 Normal
08/30/2026 07 AM PDT 180.09 69 + Normal
08/30/2026 08 AM PDT 180.10 70 + Normal
08/30/2026 09 AM PDT 180.09 69 - Normal
08/30/2026 10 AM PDT 180.10 70 + Normal
08/30/2026 11 AM PDT 180.09 69 - Normal
08/30/2026 12 PM PDT 180.08 67 - Normal
08/30/2026 01 PM PDT 180.09 69 + Normal
08/30/2026 02 PM PDT 180.08 67 - Normal
08/30/2026 03 PM PDT 180.09 69 + Normal
08/30/2026 04 PM PDT 180.08 67 - Normal
08/30/2026 05 PM PDT 180.07 66 - Normal
08/30/2026 06 PM PDT 180.08 67 + Normal
08/30/2026 07 PM PDT 180.07 66 - Normal
08/30/2026 08 PM PDT 180.07 66 0 Normal
08/30/2026 09 PM PDT 180.07 66 0 Normal
08/30/2026 10 PM PDT 180.06 64 - Normal
08/30/2026 11 PM PDT 180.06 64 0 Normal
08/31/2026 12 AM PDT 180.09 69 + Normal
08/31/2026 01 AM PDT 180.09 69 0 Normal
08/31/2026 02 AM PDT 180.11 71 + Normal
08/31/2026 03 AM PDT 180.10 70 - Normal
08/31/2026 04 AM PDT 180.11 71 + Normal
08/31/2026 05 AM PDT 180.11 71 0 Normal
08/31/2026 06 AM PDT 180.10 70 - Normal
08/31/2026 07 AM PDT 180.10 70 0 Normal
#
# FORECAST
#
# Date & Time (Local) Stage (Feet) Flow (cfs) Trend Forecast Status
# ---------------------------------------------------------------------------------
08/31/2026 08 AM PDT 180.10 70 Normal
08/31/2026 09 AM PDT 180.10 70 0 Normal
08/31/2026 10 AM PDT 180.10 70 0 Normal
08/31/2026 11 AM PDT 180.10 70 0 Normal
08/31/2026 12 PM PDT 180.10 70 0 Normal
08/31/2026 01 PM PDT 180.10 70 0 Normal
08/31/2026 02 PM PDT 180.10 70 0 Normal
08/31/2026 03 PM PDT 180.10 70 0 Normal
08/31/2026 04 PM PDT 180.10 70 0 Normal
08/31/2026 05 PM PDT 180.10 70 0 Normal
08/31/2026 06 PM PDT 180.10 70 0 Normal
08/31/2026 07 PM PDT 180.10 70 0 Normal
08/31/2026 08 PM PDT 180.10 70 0 Normal
08/31/2026 09 PM PDT 180.10 70 0 Normal
08/31/2026 10 PM PDT 180.10 70 0 Normal
08/31/2026 11 PM PDT 180.10 70 0 Normal
09/01/2026 12 AM PDT 180.10 70 0 Normal
09/01/2026 01 AM PDT 180.10 70 0 Normal
09/01/2026 02 AM PDT 180.10 70 0 Normal
09/01/2026 03 AM PDT 180.10 70 0 Normal
09/01/2026 04 AM PDT 180.10 70 0 Normal
09/01/2026 05 AM PDT 180.10 70 0 Normal
09/01/2026 06 AM PDT 180.10 70 0 Normal
09/01/2026 07 AM PDT 180.10 70 0 Normal
09/01/2026 08 AM PDT 180.10 70 0 Normal
09/01/2026 09 AM PDT 180.10 70 0 Normal
09/01/2026 10 AM PDT 180.10 70 0 Normal
09/01/2026 11 AM PDT 180.10 70 0 Normal
09/01/2026 12 PM PDT 180.10 70 0 Normal
09/01/2026 01 PM PDT 180.10 70 0 Normal
09/01/2026 02 PM PDT 180.10 70 0 Normal
09/01/2026 03 PM PDT 180.10 70 0 Normal
09/01/2026 04 PM PDT 180.10 70 0 Normal
09/01/2026 05 PM PDT 180.10 70 0 Normal
09/01/2026 06 PM PDT 180.10 70 0 Normal
09/01/2026 07 PM PDT 180.10 70 0 Normal
09/01/2026 08 PM PDT 180.10 70 0 Normal
09/01/2026 09 PM PDT 180.10 70 0 Normal
09/01/2026 10 PM PDT 180.10 70 0 Normal
09/01/2026 11 PM PDT 180.10 70 0 Normal
09/02/2026 12 AM PDT 180.10 70 0 Normal
09/02/2026 01 AM PDT 180.10 70 0 Normal
09/02/2026 02 AM PDT 180.10 70 0 Normal
09/02/2026 03 AM PDT 180.10 70 0 Normal
09/02/2026 04 AM PDT 180.10 70 0 Normal
09/02/2026 05 AM PDT 180.10 70 0 Normal
09/02/2026 06 AM PDT 180.10 70 0 Normal
09/02/2026 07 AM PDT 180.10 70 0 Normal
09/02/2026 08 AM PDT 180.10 70 0 Normal
09/02/2026 09 AM PDT 180.10 70 0 Normal
09/02/2026 10 AM PDT 180.10 70 0 Normal
09/02/2026 11 AM PDT 180.10 70 0 Normal
09/02/2026 12 PM PDT 180.10 70 0 Normal
09/02/2026 01 PM PDT 180.10 70 0 Normal
09/02/2026 02 PM PDT 180.10 70 0 Normal
09/02/2026 03 PM PDT 180.10 70 0 Normal
09/02/2026 04 PM PDT 180.10 70 0 Normal
09/02/2026 05 PM PDT 180.10 70 0 Normal
09/02/2026 06 PM PDT 180.10 70 0 Normal
09/02/2026 07 PM PDT 180.09 69 - Normal
09/02/2026 08 PM PDT 180.10 70 + Normal
09/02/2026 09 PM PDT 180.09 69 - Normal
09/02/2026 10 PM PDT 180.09 69 0 Normal
09/02/2026 11 PM PDT 180.09 69 0 Normal
09/03/2026 12 AM PDT 180.09 69 0 Normal
09/03/2026 01 AM PDT 180.09 69 0 Normal
09/03/2026 02 AM PDT 180.09 69 0 Normal
09/03/2026 03 AM PDT 180.09 69 0 Normal
09/03/2026 04 AM PDT 180.09 69 0 Normal
09/03/2026 05 AM PDT 180.09 69 0 Normal
09/03/2026 06 AM PDT 180.09 69 0 Normal
09/03/2026 07 AM PDT 180.09 69 0 Normal
09/03/2026 08 AM PDT 180.09 69 0 Normal
09/03/2026 09 AM PDT 180.09 69 0 Normal
09/03/2026 10 AM PDT 180.09 69 0 Normal
09/03/2026 11 AM PDT 180.09 69 0 Normal
09/03/2026 12 PM PDT 180.10 70 + Normal
09/03/2026 01 PM PDT 180.10 70 0 Normal
09/03/2026 02 PM PDT 180.10 70 0 Normal
09/03/2026 03 PM PDT 180.10 70 0 Normal
09/03/2026 04 PM PDT 180.11 71 + Normal
09/03/2026 05 PM PDT 180.11 71 0 Normal
09/03/2026 06 PM PDT 180.12 73 + Normal
09/03/2026 07 PM PDT 180.12 73 0 Normal
09/03/2026 08 PM PDT 180.12 73 0 Normal
09/03/2026 09 PM PDT 180.13 74 + Normal
09/03/2026 10 PM PDT 180.13 74 0 Normal
09/03/2026 11 PM PDT 180.14 75 + Normal
09/04/2026 12 AM PDT 180.14 75 0 Normal
09/04/2026 01 AM PDT 180.14 75 0 Normal
09/04/2026 02 AM PDT 180.14 75 0 Normal
09/04/2026 03 AM PDT 180.14 75 0 Normal
09/04/2026 04 AM PDT 180.14 75 0 Normal
09/04/2026 05 AM PDT 180.14 75 0 Normal
09/04/2026 06 AM PDT 180.14 75 0 Normal
09/04/2026 07 AM PDT 180.14 75 0 Normal
09/04/2026 08 AM PDT 180.13 74 - Normal
09/04/2026 09 AM PDT 180.13 74 0 Normal
09/04/2026 10 AM PDT 180.13 74 0 Normal
09/04/2026 11 AM PDT 180.13 74 0 Normal
09/04/2026 12 PM PDT 180.13 74 0 Normal
09/04/2026 01 PM PDT 180.13 74 0 Normal
09/04/2026 02 PM PDT 180.12 73 - Normal
09/04/2026 03 PM PDT 180.12 73 0 Normal
09/04/2026 04 PM PDT 180.12 73 0 Normal
09/04/2026 05 PM PDT 180.12 73 0 Normal
09/04/2026 06 PM PDT 180.12 73 0 Normal
09/04/2026 07 PM PDT 180.12 73 0 Normal
09/04/2026 08 PM PDT 180.12 73 0 Normal
09/04/2026 09 PM PDT 180.12 73 0 Normal
09/04/2026 10 PM PDT 180.12 73 0 Normal
09/04/2026 11 PM PDT 180.12 73 0 Normal
09/05/2026 12 AM PDT 180.12 73 0 Normal
09/05/2026 01 AM PDT 180.12 73 0 Normal
09/05/2026 02 AM PDT 180.12 73 0 Normal
09/05/2026 03 AM PDT 180.11 71 - Normal
09/05/2026 04 AM PDT 180.11 71 0 Normal
09/05/2026 05 AM PDT 180.11 71 0 Normal
#
# NOTE 1: Stages are rounded to the nearest hundredth (.01) of a foot.
# NOTE 2: Flows are rounded to the nearest (1) cfs.
# NOTE 3: Trends are determined using hourly change in unrounded stage and flow.
# NOTE 4: Maximum Values are determined using unrounded stage and flow.
|